Plymouth, Vermont
Current Conditions -  °F | °C
As of 5:15 AM on Saturday 20 Dec 2014 (Local Time) from KRUT Reporting Station
Clear Clear  
Wind Chill:   Ceiling: Unl
Heat Index: 14°   Visibility: 10mi
Dew Point: 10°   Wind: 8mph
Humidity: 86%   Direction: 120°ESE
Pressure: 30.22"   Gusts: NA
Location:  43.54°N, 72.72°W
Report Text: KRUT 201015Z 12007KT 10SM CLR M10/M12 A3022 RMK AO1
Loading
Personal Weather Stations






























Interactive Weather Map New forecast layout! Learn more

10-Day Weather Forecast

Advertisements
Track Severe Weather on mobile